createdAt,value
2019-01-19T00:00:19.927Z,-1.80
2019-01-19T00:02:56.871Z,-1.70
2019-01-19T00:05:58.106Z,-1.80
2019-01-19T00:09:03.402Z,-1.80
2019-01-19T00:12:19.301Z,-1.80
2019-01-19T00:15:18.001Z,-1.80
2019-01-19T00:18:21.316Z,-1.80
2019-01-19T00:21:09.852Z,-1.90
2019-01-19T00:24:16.956Z,-1.90
2019-01-19T00:27:39.578Z,-1.90
2019-01-19T00:30:29.988Z,-1.80
2019-01-19T00:33:46.217Z,-1.80
2019-01-19T00:36:46.354Z,-1.90
2019-01-19T00:39:48.259Z,-1.90
2019-01-19T00:42:47.180Z,-1.80
2019-01-19T00:46:18.438Z,-1.90
2019-01-19T00:49:28.619Z,-1.90
2019-01-19T00:52:28.464Z,-1.90
2019-01-19T00:55:44.963Z,-2.00
2019-01-19T00:58:42.334Z,-2.00
2019-01-19T01:01:37.659Z,-2.00
2019-01-19T01:04:36.722Z,-2.00
2019-01-19T01:07:46.929Z,-2.10
2019-01-19T01:10:41.915Z,-2.10
2019-01-19T01:13:36.639Z,-2.10
2019-01-19T01:16:15.125Z,-2.10
2019-01-19T01:19:24.830Z,-2.10
2019-01-19T01:22:29.931Z,-2.20
2019-01-19T01:25:34.031Z,-2.20
2019-01-19T01:28:30.839Z,-2.30
2019-01-19T01:31:16.047Z,-2.30
2019-01-19T01:34:07.382Z,-2.30
2019-01-19T01:36:50.700Z,-2.40
2019-01-19T01:40:02.899Z,-2.30
2019-01-19T01:43:00.676Z,-2.30
2019-01-19T01:46:16.660Z,-2.40
2019-01-19T01:49:27.161Z,-2.50
2019-01-19T01:52:08.408Z,-2.40
2019-01-19T01:55:06.300Z,-2.40
2019-01-19T01:58:32.062Z,-2.40
2019-01-19T02:01:19.464Z,-2.30
2019-01-19T02:04:50.957Z,-2.20
2019-01-19T02:08:04.137Z,-2.20
2019-01-19T02:11:23.764Z,-2.10
2019-01-19T02:14:17.389Z,-2.10
2019-01-19T02:17:29.704Z,-2.10
2019-01-19T02:20:48.360Z,-2.10
2019-01-19T02:23:53.661Z,-2.10
2019-01-19T02:27:16.029Z,-2.00
2019-01-19T02:30:22.139Z,-1.90
2019-01-19T02:33:02.344Z,-1.80
2019-01-19T02:36:27.506Z,-1.80
2019-01-19T02:39:29.877Z,-1.80
2019-01-19T02:42:38.478Z,-1.80
2019-01-19T02:45:38.779Z,-1.80
2019-01-19T02:48:46.867Z,-1.80
2019-01-19T02:51:26.347Z,-1.80
2019-01-19T02:54:42.976Z,-1.80
2019-01-19T02:57:36.115Z,-1.80
2019-01-19T03:00:37.699Z,-1.80
2019-01-19T03:03:33.701Z,-1.70
2019-01-19T03:06:23.406Z,-1.70
2019-01-19T03:09:23.294Z,-1.60
2019-01-19T03:12:31.590Z,-1.60
2019-01-19T03:15:29.132Z,-1.50
2019-01-19T03:18:29.768Z,-1.50
2019-01-19T03:21:31.579Z,-1.60
2019-01-19T03:24:45.915Z,-1.60
2019-01-19T03:27:31.192Z,-1.60
2019-01-19T03:30:49.788Z,-1.60
2019-01-19T03:34:09.276Z,-1.50
2019-01-19T03:37:06.550Z,-1.60
2019-01-19T03:40:38.459Z,-1.50
2019-01-19T03:43:43.620Z,-1.40
2019-01-19T03:46:49.884Z,-1.40
2019-01-19T03:49:49.463Z,-1.30
2019-01-19T03:52:46.650Z,-1.30
2019-01-19T03:55:52.773Z,-1.30
2019-01-19T03:58:40.739Z,-1.40
2019-01-19T04:01:32.035Z,-1.40
2019-01-19T04:04:31.237Z,-1.40
2019-01-19T04:07:16.087Z,-1.40
2019-01-19T04:10:13.065Z,-1.40
2019-01-19T04:13:18.085Z,-1.40
2019-01-19T04:16:18.129Z,-1.40
2019-01-19T04:19:17.433Z,-1.30
2019-01-19T04:22:32.575Z,-1.30
2019-01-19T04:28:04.101Z,-1.40
2019-01-19T04:30:33.161Z,-1.30
2019-01-19T04:33:02.334Z,-1.30
2019-01-19T04:35:31.683Z,-1.20
2019-01-19T04:38:00.747Z,-1.20
2019-01-19T04:40:29.771Z,-1.20
2019-01-19T04:42:58.962Z,-1.20
2019-01-19T04:45:27.900Z,-1.20
2019-01-19T04:47:56.923Z,-1.20
2019-01-19T04:50:26.046Z,-1.20
2019-01-19T04:52:55.070Z,-1.20
2019-01-19T04:55:24.104Z,-1.10
2019-01-19T04:57:53.160Z,-1.20
2019-01-19T05:00:22.254Z,-1.20
2019-01-19T05:02:51.289Z,-1.20
2019-01-19T05:05:20.620Z,-1.20
2019-01-19T05:07:49.719Z,-1.20
2019-01-19T05:10:18.755Z,-1.30
2019-01-19T05:12:47.904Z,-1.30
2019-01-19T05:15:21.657Z,-1.30
2019-01-19T05:17:52.447Z,-1.30
2019-01-19T05:20:21.558Z,-1.30
2019-01-19T05:22:50.748Z,-1.30
2019-01-19T05:25:19.774Z,-1.30
2019-01-19T05:27:48.747Z,-1.30
2019-01-19T05:30:19.914Z,-1.30
2019-01-19T05:32:49.187Z,-1.40
2019-01-19T05:35:18.263Z,-1.20
2019-01-19T05:37:47.298Z,-1.20
2019-01-19T05:40:16.366Z,-1.20
2019-01-19T05:42:45.517Z,-1.20
2019-01-19T05:45:15.495Z,-1.20
2019-01-19T05:47:44.349Z,-1.20
2019-01-19T05:50:19.001Z,-1.20
2019-01-19T05:52:48.022Z,-1.20
2019-01-19T05:55:17.113Z,-1.20
2019-01-19T05:57:46.242Z,-1.30
2019-01-19T06:00:17.886Z,-1.40
2019-01-19T06:02:46.904Z,-1.30
2019-01-19T06:05:16.018Z,-1.30
2019-01-19T06:07:45.092Z,-1.20
2019-01-19T06:10:15.436Z,-1.10
2019-01-19T06:12:47.543Z,-1.10
2019-01-19T06:15:16.504Z,-1.10
2019-01-19T06:17:45.579Z,-1.10
2019-01-19T06:20:15.697Z,-1.10
2019-01-19T06:22:44.712Z,-1.10
2019-01-19T06:25:14.581Z,-1.00
2019-01-19T06:27:43.605Z,-1.00
2019-01-19T06:30:18.127Z,-1.00
2019-01-19T06:32:47.476Z,-1.00
2019-01-19T06:35:16.791Z,-1.00
2019-01-19T06:37:45.972Z,-1.00
2019-01-19T06:40:15.657Z,-1.00
2019-01-19T06:42:44.662Z,-1.00
2019-01-19T06:45:32.865Z,-1.00
2019-01-19T06:48:01.818Z,-1.00
2019-01-19T06:50:30.939Z,-1.00
2019-01-19T06:52:59.909Z,-1.00
2019-01-19T06:55:33.902Z,-0.90
2019-01-19T06:58:02.980Z,-1.00
2019-01-19T07:00:32.107Z,-0.90
2019-01-19T07:03:01.199Z,-1.00
2019-01-19T07:05:30.272Z,-0.90
2019-01-19T07:08:18.385Z,-1.00
2019-01-19T07:10:47.418Z,-0.90
2019-01-19T07:13:16.440Z,-0.90
2019-01-19T07:15:45.394Z,-0.90
2019-01-19T07:18:14.461Z,-0.90
2019-01-19T07:20:43.731Z,-0.80
2019-01-19T07:23:12.747Z,-0.80
2019-01-19T07:25:43.327Z,-0.80
2019-01-19T07:28:12.530Z,-0.90
2019-01-19T07:30:41.553Z,-0.90
2019-01-19T07:33:10.681Z,-0.90
2019-01-19T07:35:39.741Z,-0.90
2019-01-19T07:38:08.759Z,-0.90
2019-01-19T07:40:37.791Z,-0.80
2019-01-19T07:43:08.799Z,-0.80
2019-01-19T07:45:37.807Z,-0.80
2019-01-19T07:48:07.476Z,-0.80
2019-01-19T07:50:36.549Z,-0.70
2019-01-19T07:53:05.656Z,-0.70
2019-01-19T07:55:34.621Z,-0.70
2019-01-19T07:58:03.532Z,-0.70
2019-01-19T08:00:33.358Z,-0.70
2019-01-19T08:03:02.468Z,-0.70
2019-01-19T08:05:50.701Z,-0.60
2019-01-19T08:08:19.753Z,-0.60
2019-01-19T08:10:48.855Z,-0.60
2019-01-19T08:13:17.871Z,-0.50
2019-01-19T08:15:46.919Z,-0.50
2019-01-19T08:18:16.057Z,-0.50
2019-01-19T08:20:44.960Z,-0.40
2019-01-19T08:23:14.051Z,-0.40
2019-01-19T08:25:43.067Z,-0.40
2019-01-19T08:28:12.019Z,-0.40
2019-01-19T08:30:41.078Z,-0.40
2019-01-19T08:33:10.093Z,-0.40
2019-01-19T08:35:39.109Z,-0.30
2019-01-19T08:38:08.061Z,-0.30
2019-01-19T08:40:37.519Z,-0.20
2019-01-19T08:43:21.475Z,-0.20
2019-01-19T08:45:50.497Z,-0.20
2019-01-19T08:48:19.892Z,-0.20
2019-01-19T08:50:49.007Z,-0.10
2019-01-19T08:53:18.150Z,-0.10
2019-01-19T08:55:47.165Z,-0.10
2019-01-19T08:58:16.369Z,-0.10
2019-01-19T09:00:45.516Z,-0.10
2019-01-19T09:03:14.660Z,-0.10
2019-01-19T09:05:43.855Z,0.00
2019-01-19T09:08:12.953Z,0.00
2019-01-19T09:10:42.049Z,0.10
2019-01-19T09:13:11.100Z,0.20
2019-01-19T09:15:40.036Z,0.30
2019-01-19T09:18:09.320Z,0.40
2019-01-19T09:20:38.351Z,0.50
2019-01-19T09:23:19.112Z,0.50
2019-01-19T09:25:48.223Z,0.50
2019-01-19T09:28:17.220Z,0.60
2019-01-19T09:30:46.298Z,0.60
2019-01-19T09:33:15.323Z,0.60
2019-01-19T09:35:44.414Z,0.70
2019-01-19T09:38:13.420Z,0.70
2019-01-19T09:40:42.464Z,0.70
2019-01-19T09:43:11.487Z,0.70
2019-01-19T09:45:40.648Z,0.80
2019-01-19T09:48:09.664Z,0.80
2019-01-19T09:50:39.246Z,0.90
2019-01-19T09:53:08.414Z,0.80
2019-01-19T09:55:37.671Z,0.80
2019-01-19T09:58:06.688Z,0.90
2019-01-19T10:00:37.763Z,1.00
2019-01-19T10:03:06.913Z,1.00
2019-01-19T10:05:36.074Z,1.10
2019-01-19T10:08:05.272Z,1.20
2019-01-19T10:10:34.467Z,1.20
2019-01-19T10:13:03.485Z,1.20
2019-01-19T10:15:32.352Z,1.30
2019-01-19T10:18:01.413Z,1.40
2019-01-19T10:20:30.507Z,1.50
2019-01-19T10:22:59.555Z,1.50
2019-01-19T10:25:28.619Z,1.50
2019-01-19T10:27:57.743Z,1.40
2019-01-19T10:30:27.207Z,1.50
2019-01-19T10:32:56.416Z,1.60
2019-01-19T10:35:25.803Z,1.60
2019-01-19T10:37:56.441Z,1.60
2019-01-19T10:40:44.666Z,1.70
2019-01-19T10:43:13.917Z,1.70
2019-01-19T10:45:43.139Z,1.70
2019-01-19T10:48:12.251Z,1.70
2019-01-19T10:50:41.177Z,1.80
2019-01-19T10:53:10.203Z,1.90
2019-01-19T10:55:39.233Z,1.90
2019-01-19T10:58:08.250Z,2.00
2019-01-19T11:00:37.395Z,2.00
2019-01-19T11:03:06.491Z,2.00
2019-01-19T11:05:35.574Z,2.10
2019-01-19T11:08:07.120Z,2.10
2019-01-19T11:10:36.138Z,2.20
2019-01-19T11:13:05.064Z,2.20
2019-01-19T11:15:34.306Z,2.20
2019-01-19T11:18:03.746Z,2.20
2019-01-19T11:20:32.768Z,2.30
2019-01-19T11:23:01.815Z,2.40
2019-01-19T11:25:30.936Z,2.40
2019-01-19T11:28:00.014Z,2.40
2019-01-19T11:30:30.494Z,2.40
2019-01-19T11:32:59.509Z,2.50
2019-01-19T11:35:28.502Z,2.50
2019-01-19T11:37:57.584Z,2.60
2019-01-19T11:40:32.366Z,2.60
2019-01-19T11:43:01.462Z,2.60
2019-01-19T11:45:30.487Z,2.50
2019-01-19T11:47:59.513Z,2.60
2019-01-19T11:50:28.770Z,2.60
2019-01-19T11:52:57.780Z,2.60
2019-01-19T11:55:26.632Z,2.60
2019-01-19T11:57:58.259Z,2.60
2019-01-19T12:00:28.975Z,2.60
2019-01-19T12:02:57.987Z,2.70
2019-01-19T12:05:27.091Z,2.60
2019-01-19T12:07:56.263Z,2.70
2019-01-19T12:10:27.310Z,2.80
2019-01-19T12:12:57.435Z,2.90
2019-01-19T12:15:26.816Z,2.90
2019-01-19T12:17:56.050Z,2.90
2019-01-19T12:20:39.407Z,2.90
2019-01-19T12:23:09.080Z,3.00
2019-01-19T12:25:40.951Z,3.10
2019-01-19T12:28:09.993Z,3.10
2019-01-19T12:30:39.090Z,3.20
2019-01-19T12:33:08.495Z,3.30
2019-01-19T12:35:37.486Z,3.20
2019-01-19T12:38:06.505Z,3.30
2019-01-19T12:40:35.683Z,3.30
2019-01-19T12:43:17.178Z,3.30
2019-01-19T12:45:55.168Z,3.50
2019-01-19T12:48:24.315Z,3.50
2019-01-19T12:50:53.466Z,3.60
2019-01-19T12:53:22.309Z,3.60
2019-01-19T12:55:51.478Z,3.50
2019-01-19T12:58:39.740Z,3.40
2019-01-19T13:01:08.834Z,3.40
2019-01-19T13:03:37.834Z,3.50
2019-01-19T13:06:30.234Z,3.70
2019-01-19T13:08:59.651Z,3.70
2019-01-19T13:12:15.365Z,3.70
2019-01-19T13:14:56.145Z,3.60
2019-01-19T13:18:16.975Z,3.60
2019-01-19T13:21:30.256Z,3.50
2019-01-19T13:24:10.929Z,3.50
2019-01-19T13:27:48.852Z,3.50
2019-01-19T13:30:27.335Z,3.50
2019-01-19T13:33:04.366Z,3.50
2019-01-19T13:36:13.924Z,3.50
2019-01-19T13:39:14.426Z,3.40
2019-01-19T13:42:20.575Z,3.30
2019-01-19T13:45:12.740Z,3.30
2019-01-19T13:48:05.328Z,3.40
2019-01-19T13:51:06.270Z,3.40
2019-01-19T13:54:01.995Z,3.30
2019-01-19T13:57:12.741Z,3.20
2019-01-19T14:00:28.327Z,3.20
2019-01-19T14:03:33.274Z,3.10
2019-01-19T14:06:24.277Z,3.20
2019-01-19T14:09:40.116Z,3.10
2019-01-19T14:12:50.462Z,3.00
2019-01-19T14:15:59.406Z,3.10
2019-01-19T14:19:15.712Z,3.10
2019-01-19T14:22:26.662Z,3.10
2019-01-19T14:25:28.458Z,3.10
2019-01-19T14:28:38.709Z,3.00
2019-01-19T14:31:37.934Z,3.00
2019-01-19T14:34:32.962Z,3.00
2019-01-19T14:37:37.764Z,3.00
2019-01-19T14:40:44.338Z,3.00
2019-01-19T14:44:06.610Z,3.00
2019-01-19T14:47:16.304Z,2.90
2019-01-19T14:50:41.970Z,2.90
2019-01-19T14:53:48.762Z,2.90
2019-01-19T14:57:06.013Z,2.90
2019-01-19T15:00:06.970Z,2.90
2019-01-19T15:03:38.509Z,2.90
2019-01-19T15:06:17.081Z,2.80
2019-01-19T15:09:19.071Z,2.80
2019-01-19T15:12:21.245Z,2.70
2019-01-19T15:15:13.123Z,2.70
2019-01-19T15:18:22.589Z,2.60
2019-01-19T15:21:18.777Z,2.60
2019-01-19T15:24:06.775Z,2.60
2019-01-19T15:27:07.416Z,2.60
2019-01-19T15:30:09.161Z,2.50
2019-01-19T15:33:15.555Z,2.50
2019-01-19T15:36:17.020Z,2.50
2019-01-19T15:38:57.024Z,2.40
2019-01-19T15:42:09.378Z,2.30
2019-01-19T15:44:53.834Z,2.30
2019-01-19T15:47:45.365Z,2.30
2019-01-19T15:50:51.606Z,2.20
2019-01-19T15:54:00.732Z,2.20
2019-01-19T15:57:17.094Z,2.10
2019-01-19T16:00:37.428Z,2.00
2019-01-19T16:03:49.224Z,1.90
2019-01-19T16:06:55.199Z,1.90
2019-01-19T16:10:21.062Z,1.80
2019-01-19T16:13:29.364Z,1.80
2019-01-19T16:16:23.976Z,1.80
2019-01-19T16:19:31.694Z,1.70
2019-01-19T16:22:48.081Z,1.70
2019-01-19T16:26:01.594Z,1.60
2019-01-19T16:29:13.837Z,1.60
2019-01-19T16:32:24.898Z,1.60
2019-01-19T16:35:25.112Z,1.60
2019-01-19T16:38:28.211Z,1.50
2019-01-19T16:41:29.197Z,1.50
2019-01-19T16:44:13.831Z,1.50
2019-01-19T16:47:15.282Z,1.50
2019-01-19T16:50:02.688Z,1.50
2019-01-19T16:53:02.139Z,1.40
2019-01-19T16:55:49.529Z,1.40
2019-01-19T16:58:52.338Z,1.30
2019-01-19T17:01:58.625Z,1.30
2019-01-19T17:05:08.726Z,1.20
2019-01-19T17:08:12.111Z,1.20
2019-01-19T17:11:07.243Z,1.20
2019-01-19T17:14:13.699Z,1.20
2019-01-19T17:17:32.919Z,1.10
2019-01-19T17:20:39.235Z,1.10
2019-01-19T17:23:45.377Z,1.20
2019-01-19T17:26:30.982Z,1.10
2019-01-19T17:29:51.800Z,1.00
2019-01-19T17:32:52.146Z,1.00
2019-01-19T17:36:14.734Z,1.00
2019-01-19T17:39:20.556Z,1.00
2019-01-19T17:42:03.160Z,1.00
2019-01-19T17:45:21.562Z,1.00
2019-01-19T17:48:17.311Z,1.10
2019-01-19T17:51:20.000Z,1.10
2019-01-19T17:54:38.462Z,1.10
2019-01-19T17:57:27.595Z,1.10
2019-01-19T18:00:27.441Z,1.00
2019-01-19T18:03:28.605Z,1.00
2019-01-19T18:06:32.597Z,1.00
2019-01-19T18:09:27.615Z,1.00
2019-01-19T18:12:44.231Z,1.00
2019-01-19T18:15:55.794Z,1.00
2019-01-19T18:19:11.259Z,1.00
2019-01-19T18:21:57.987Z,1.00
2019-01-19T18:24:53.939Z,0.90
2019-01-19T18:27:56.259Z,0.90
2019-01-19T18:30:50.186Z,0.90
2019-01-19T18:34:02.855Z,0.80
2019-01-19T18:37:16.044Z,0.80
2019-01-19T18:40:00.572Z,0.70
2019-01-19T18:43:20.232Z,0.70
2019-01-19T18:46:20.962Z,0.70
2019-01-19T18:49:14.729Z,0.70
2019-01-19T18:52:40.818Z,0.80
2019-01-19T18:55:53.108Z,0.70
2019-01-19T18:58:36.555Z,0.70
2019-01-19T19:01:41.536Z,0.70
2019-01-19T19:04:52.142Z,0.70
2019-01-19T19:08:14.405Z,0.60
2019-01-19T19:11:35.660Z,0.60
2019-01-19T19:14:41.892Z,0.60
2019-01-19T19:17:27.043Z,0.60
2019-01-19T19:20:46.565Z,0.60
2019-01-19T19:23:21.179Z,0.60
2019-01-19T19:26:33.441Z,0.60
2019-01-19T19:29:25.521Z,0.60
2019-01-19T19:32:29.322Z,0.60
2019-01-19T19:35:49.319Z,0.60
2019-01-19T19:38:50.235Z,0.60
2019-01-19T19:42:12.530Z,0.60
2019-01-19T19:45:17.949Z,0.50
2019-01-19T19:48:19.127Z,0.60
2019-01-19T19:51:31.987Z,0.50
2019-01-19T19:54:01.100Z,0.60
2019-01-19T19:56:28.722Z,0.60
2019-01-19T19:58:57.892Z,0.50
2019-01-19T20:01:26.837Z,0.50
2019-01-19T20:03:55.906Z,0.50
2019-01-19T20:06:25.020Z,0.50
2019-01-19T20:08:54.218Z,0.50
2019-01-19T20:11:23.319Z,0.50
2019-01-19T20:13:52.414Z,0.50
2019-01-19T20:16:21.546Z,0.40
2019-01-19T20:18:50.662Z,0.40
2019-01-19T20:21:19.702Z,0.40
2019-01-19T20:23:48.852Z,0.40
2019-01-19T20:26:17.915Z,0.40
2019-01-19T20:28:47.078Z,0.40
2019-01-19T20:31:16.118Z,0.40
2019-01-19T20:33:45.151Z,0.40
2019-01-19T20:36:15.796Z,0.30
2019-01-19T20:38:45.085Z,0.30
2019-01-19T20:41:14.097Z,0.30
2019-01-19T20:43:43.148Z,0.30
2019-01-19T20:46:12.346Z,0.30
2019-01-19T20:48:41.746Z,0.30
2019-01-19T20:51:10.783Z,0.20
2019-01-19T20:53:39.832Z,0.20
2019-01-19T20:56:08.751Z,0.30
2019-01-19T20:58:37.823Z,0.30
2019-01-19T21:01:06.879Z,0.20
2019-01-19T21:03:35.908Z,0.20
2019-01-19T21:06:04.852Z,0.20
2019-01-19T21:08:33.933Z,0.10
2019-01-19T21:11:02.991Z,0.00
2019-01-19T21:13:32.065Z,0.00
2019-01-19T21:16:01.121Z,-0.10
2019-01-19T21:18:31.885Z,0.00
2019-01-19T21:21:01.103Z,0.00
2019-01-19T21:23:30.153Z,-0.10
2019-01-19T21:25:59.185Z,0.00
2019-01-19T21:28:30.897Z,-0.10
2019-01-19T21:30:59.883Z,-0.20
2019-01-19T21:33:29.429Z,-0.20
2019-01-19T21:35:58.465Z,-0.30
2019-01-19T21:38:46.779Z,-0.30
2019-01-19T21:41:15.922Z,-0.40
2019-01-19T21:43:44.944Z,-0.40
2019-01-19T21:46:14.032Z,-0.50
2019-01-19T21:48:43.170Z,-0.50
2019-01-19T21:51:12.176Z,-0.50
2019-01-19T21:53:41.328Z,-0.50
2019-01-19T21:56:10.446Z,-0.50
2019-01-19T21:58:39.489Z,-0.50
2019-01-19T22:01:08.589Z,-0.50
2019-01-19T22:03:37.590Z,-0.60
2019-01-19T22:06:06.736Z,-0.50
2019-01-19T22:08:35.765Z,-0.50
2019-01-19T22:11:04.829Z,-0.60
2019-01-19T22:13:33.934Z,-0.50
2019-01-19T22:16:02.867Z,-0.50
2019-01-19T22:18:31.942Z,-0.60
2019-01-19T22:21:01.062Z,-0.60
2019-01-19T22:23:30.084Z,-0.60
2019-01-19T22:25:59.163Z,-0.60
2019-01-19T22:28:28.186Z,-0.60
2019-01-19T22:30:57.289Z,-0.60
2019-01-19T22:33:26.576Z,-0.60
2019-01-19T22:35:55.703Z,-0.60
2019-01-19T22:38:24.723Z,-0.60
2019-01-19T22:40:53.944Z,-0.60
2019-01-19T22:43:31.418Z,-0.60
2019-01-19T22:46:00.464Z,-0.60
2019-01-19T22:48:29.489Z,-0.60
2019-01-19T22:50:58.839Z,-0.60
2019-01-19T22:53:27.905Z,-0.70
2019-01-19T22:55:56.987Z,-0.80
2019-01-19T22:58:25.917Z,-0.70
2019-01-19T23:01:07.845Z,-0.70
2019-01-19T23:03:38.190Z,-0.70
2019-01-19T23:06:07.231Z,-0.70
2019-01-19T23:08:36.411Z,-0.70
2019-01-19T23:11:05.408Z,-0.80
2019-01-19T23:13:34.546Z,-0.90
2019-01-19T23:16:03.714Z,-0.90
2019-01-19T23:18:32.812Z,-0.90
2019-01-19T23:21:01.832Z,-0.90
2019-01-19T23:23:31.032Z,-0.90
2019-01-19T23:26:01.741Z,-0.90
2019-01-19T23:28:30.769Z,-1.00
2019-01-19T23:30:59.802Z,-1.00
2019-01-19T23:33:28.888Z,-1.00
2019-01-19T23:35:57.820Z,-1.00
2019-01-19T23:38:26.882Z,-1.00
2019-01-19T23:40:55.934Z,-1.00
2019-01-19T23:43:25.566Z,-1.10
2019-01-19T23:45:54.626Z,-1.10
2019-01-19T23:48:23.658Z,-1.20
2019-01-19T23:50:52.674Z,-1.20
2019-01-19T23:53:21.796Z,-1.20
2019-01-19T23:55:50.746Z,-1.20
2019-01-19T23:58:19.893Z,-1.20
